createdAt,value
2022-12-25T00:02:17.640Z,101738.91
2022-12-25T00:04:44.079Z,101779.47
2022-12-25T00:07:10.456Z,101784.34
2022-12-25T00:09:36.813Z,101786.28
2022-12-25T00:12:03.391Z,101787.56
2022-12-25T00:14:29.769Z,101763.00
2022-12-25T00:16:56.126Z,101771.72
2022-12-25T00:19:22.493Z,101779.56
2022-12-25T00:21:48.878Z,101775.91
2022-12-25T00:24:15.316Z,101771.63
2022-12-25T00:26:41.709Z,101761.16
2022-12-25T00:29:12.396Z,101760.09
2022-12-25T00:31:38.820Z,101768.94
2022-12-25T00:34:05.234Z,101761.25
2022-12-25T00:36:36.229Z,101760.41
2022-12-25T00:39:07.199Z,101763.50
2022-12-25T00:41:51.983Z,101748.72
2022-12-25T00:44:18.335Z,101755.66
2022-12-25T00:46:44.947Z,101753.53
2022-12-25T00:49:11.931Z,101755.25
2022-12-25T00:51:38.381Z,101748.00
2022-12-25T00:54:04.792Z,101756.94
2022-12-25T00:56:31.172Z,101760.00
2022-12-25T00:58:57.565Z,101727.59
2022-12-25T01:01:24.081Z,101757.13
2022-12-25T01:03:50.590Z,101750.88
2022-12-25T01:06:17.142Z,101754.38
2022-12-25T01:09:03.696Z,101763.91
2022-12-25T01:11:31.085Z,101754.59
2022-12-25T01:13:58.421Z,101759.66
2022-12-25T01:16:24.972Z,101750.94
2022-12-25T01:18:51.360Z,101770.28
2022-12-25T01:21:22.148Z,101762.44
2022-12-25T01:23:50.456Z,101758.81
2022-12-25T01:26:17.867Z,101765.38
2022-12-25T01:28:44.640Z,101759.44
2022-12-25T01:31:13.592Z,101764.53
2022-12-25T01:33:41.523Z,101743.16
2022-12-25T01:36:25.580Z,101773.69
2022-12-25T01:38:53.255Z,101774.97
2022-12-25T01:41:21.912Z,101772.84
2022-12-25T01:44:07.982Z,101803.28
2022-12-25T01:46:35.348Z,101808.66
2022-12-25T01:49:23.554Z,101811.84
2022-12-25T01:51:57.118Z,101821.09
2022-12-25T01:54:29.053Z,101813.44
2022-12-25T01:56:59.348Z,101804.31
2022-12-25T01:59:27.347Z,101799.63
2022-12-25T02:01:53.998Z,101806.84
2022-12-25T02:04:40.909Z,101803.56
2022-12-25T02:07:11.326Z,101791.63
2022-12-25T02:09:38.102Z,101793.81
2022-12-25T02:12:05.676Z,101791.56
2022-12-25T02:14:36.625Z,101791.84
2022-12-25T02:17:10.355Z,101790.88
2022-12-25T02:19:46.916Z,101791.63
2022-12-25T02:23:01.491Z,101798.81
2022-12-25T02:25:55.686Z,101803.69
2022-12-25T02:28:32.430Z,101794.28
2022-12-25T02:31:10.454Z,101788.59
2022-12-25T02:34:04.722Z,101781.25
2022-12-25T02:36:39.051Z,101783.56
2022-12-25T02:39:32.186Z,101783.47
2022-12-25T02:42:01.730Z,101777.78
2022-12-25T02:44:48.313Z,101781.91
2022-12-25T02:47:34.105Z,101775.59
2022-12-25T02:50:19.626Z,101771.53
2022-12-25T02:53:05.928Z,101754.56
2022-12-25T02:55:57.160Z,101760.69
2022-12-25T02:58:45.079Z,101750.03
2022-12-25T03:01:35.180Z,101782.09
2022-12-25T03:04:28.719Z,101780.66
2022-12-25T03:07:04.298Z,101783.69
2022-12-25T03:10:14.910Z,101788.03
2022-12-25T03:12:52.553Z,101775.34
2022-12-25T03:15:39.233Z,101784.56
2022-12-25T03:18:10.335Z,101784.44
2022-12-25T03:20:55.869Z,101772.91
2022-12-25T03:23:46.726Z,101767.34
2022-12-25T03:26:31.624Z,101768.09
2022-12-25T03:28:58.028Z,101763.47
2022-12-25T03:31:44.883Z,101761.66
2022-12-25T03:34:41.942Z,101755.28
2022-12-25T03:37:33.195Z,101749.94
2022-12-25T03:40:32.800Z,101742.69
2022-12-25T03:43:40.114Z,101745.56
2022-12-25T03:46:33.054Z,101739.75
2022-12-25T03:49:26.027Z,101738.44
2022-12-25T03:52:14.186Z,101707.28
2022-12-25T03:55:02.573Z,101728.97
2022-12-25T03:57:47.537Z,101719.88
2022-12-25T04:00:32.748Z,101728.38
2022-12-25T04:03:17.745Z,101721.56
2022-12-25T04:06:02.553Z,101703.09
2022-12-25T04:08:51.881Z,101699.34
2022-12-25T04:11:37.311Z,101664.94
2022-12-25T04:14:22.090Z,101696.56
2022-12-25T04:17:06.849Z,101666.75
2022-12-25T04:19:51.732Z,101702.47
2022-12-25T04:22:36.575Z,101687.53
2022-12-25T04:25:23.273Z,101673.34
2022-12-25T04:28:08.257Z,101679.03
2022-12-25T04:30:53.350Z,101675.25
2022-12-25T04:33:38.264Z,101679.38
2022-12-25T04:36:13.776Z,101675.91
2022-12-25T04:38:41.095Z,101674.50
2022-12-25T04:41:09.799Z,101679.31
2022-12-25T04:43:36.410Z,101663.69
2022-12-25T04:46:03.885Z,101669.22
2022-12-25T04:48:33.007Z,101677.50
2022-12-25T04:51:13.297Z,101688.75
2022-12-25T04:53:39.696Z,101683.28
2022-12-25T04:56:06.200Z,101690.06
2022-12-25T04:58:33.028Z,101662.69
2022-12-25T05:01:01.856Z,101687.34
2022-12-25T05:03:29.627Z,101696.19
2022-12-25T05:05:56.155Z,101673.06
2022-12-25T05:08:22.924Z,101692.66
2022-12-25T05:10:49.718Z,101686.81
2022-12-25T05:13:16.180Z,101695.31
2022-12-25T05:15:43.514Z,101698.56
2022-12-25T05:18:10.216Z,101705.72
2022-12-25T05:20:40.146Z,101704.88
2022-12-25T05:23:06.750Z,101685.84
2022-12-25T05:25:33.162Z,101712.13
2022-12-25T05:27:59.539Z,101712.28
2022-12-25T05:30:25.938Z,101710.22
2022-12-25T05:32:52.311Z,101704.88
2022-12-25T05:35:18.735Z,101707.28
2022-12-25T05:37:45.283Z,101694.38
2022-12-25T05:40:11.860Z,101686.41
2022-12-25T05:42:38.264Z,101686.94
2022-12-25T05:45:05.131Z,101686.09
2022-12-25T05:47:31.524Z,101691.44
2022-12-25T05:49:57.894Z,101696.50
2022-12-25T05:52:24.298Z,101704.41
2022-12-25T05:54:50.648Z,101697.28
2022-12-25T05:57:17.028Z,101702.38
2022-12-25T05:59:43.400Z,101704.50
2022-12-25T06:02:09.814Z,101699.72
2022-12-25T06:04:36.319Z,101693.84
2022-12-25T06:07:02.708Z,101653.16
2022-12-25T06:09:29.047Z,101686.13
2022-12-25T06:11:55.434Z,101690.25
2022-12-25T06:14:21.862Z,101677.56
2022-12-25T06:16:52.329Z,101673.06
2022-12-25T06:19:19.795Z,101663.81
2022-12-25T06:21:46.298Z,101665.03
2022-12-25T06:24:19.206Z,101665.47
2022-12-25T06:26:47.914Z,101669.16
2022-12-25T06:29:14.676Z,101672.97
2022-12-25T06:31:41.490Z,101673.13
2022-12-25T06:34:08.429Z,101667.63
2022-12-25T06:36:37.468Z,101654.78
2022-12-25T06:39:04.008Z,101663.53
2022-12-25T06:41:31.007Z,101669.72
2022-12-25T06:43:59.772Z,101672.84
2022-12-25T06:46:29.067Z,101659.56
2022-12-25T06:48:56.890Z,101666.09
2022-12-25T06:51:26.426Z,101664.97
2022-12-25T06:53:53.532Z,101664.00
2022-12-25T06:56:24.064Z,101653.84
2022-12-25T06:58:53.629Z,101640.22
2022-12-25T07:01:24.501Z,101637.09
2022-12-25T07:03:56.267Z,101645.66
2022-12-25T07:06:23.042Z,101625.94
2022-12-25T07:08:49.475Z,101632.44
2022-12-25T07:11:15.913Z,101629.34
2022-12-25T07:13:42.287Z,101623.28
2022-12-25T07:16:09.999Z,101623.28
2022-12-25T07:18:36.566Z,101630.63
2022-12-25T07:21:11.570Z,101633.44
2022-12-25T07:23:37.985Z,101623.16
2022-12-25T07:26:04.930Z,101638.47
2022-12-25T07:28:32.305Z,101627.66
2022-12-25T07:31:03.680Z,101620.19
2022-12-25T07:33:30.098Z,101611.44
2022-12-25T07:35:56.498Z,101622.13
2022-12-25T07:38:22.922Z,101623.81
2022-12-25T07:40:50.089Z,101612.44
2022-12-25T07:43:16.727Z,101612.56
2022-12-25T07:45:43.148Z,101619.47
2022-12-25T07:48:15.318Z,101609.72
2022-12-25T07:50:42.936Z,101621.00
2022-12-25T07:53:09.339Z,101622.69
2022-12-25T07:55:35.765Z,101635.06
2022-12-25T07:58:02.152Z,101639.03
2022-12-25T08:00:32.375Z,101640.72
2022-12-25T08:02:59.766Z,101653.41
2022-12-25T08:05:26.434Z,101650.03
2022-12-25T08:07:57.676Z,101644.97
2022-12-25T08:10:24.667Z,101644.97
2022-12-25T08:12:51.983Z,101647.53
2022-12-25T08:15:18.431Z,101659.75
2022-12-25T08:17:44.916Z,101656.22
2022-12-25T08:20:11.671Z,101658.78
2022-12-25T08:22:38.054Z,101648.06
2022-12-25T08:25:04.855Z,101647.09
2022-12-25T08:27:31.253Z,101640.59
2022-12-25T08:29:57.602Z,101620.19
2022-12-25T08:32:24.030Z,101652.88
2022-12-25T08:34:50.418Z,101652.03
2022-12-25T08:37:16.775Z,101656.28
2022-12-25T08:39:43.128Z,101641.31
2022-12-25T08:42:09.536Z,101661.63
2022-12-25T08:44:36.185Z,101649.91
2022-12-25T08:47:02.565Z,101653.44
2022-12-25T08:49:29.152Z,101645.81
2022-12-25T08:51:55.736Z,101651.19
2022-12-25T08:54:22.192Z,101644.84
2022-12-25T08:56:48.553Z,101645.81
2022-12-25T08:59:14.931Z,101651.47
2022-12-25T09:01:41.458Z,101654.41
2022-12-25T09:04:07.916Z,101641.56
2022-12-25T09:06:34.401Z,101649.06
2022-12-25T09:09:00.779Z,101637.06
2022-12-25T09:11:27.169Z,101662.97
2022-12-25T09:13:53.555Z,101659.75
2022-12-25T09:16:22.132Z,101657.63
2022-12-25T09:18:49.479Z,101648.34
2022-12-25T09:21:17.390Z,101639.63
2022-12-25T09:23:44.100Z,101648.88
2022-12-25T09:26:14.977Z,101644.53
2022-12-25T09:28:48.395Z,101631.72
2022-12-25T09:31:15.113Z,101632.56
2022-12-25T09:33:41.513Z,101632.16
2022-12-25T09:36:08.976Z,101626.38
2022-12-25T09:38:35.497Z,101632.03
2022-12-25T09:41:14.647Z,101635.69
2022-12-25T09:43:47.681Z,101635.25
2022-12-25T09:46:19.137Z,101625.13
2022-12-25T09:48:54.979Z,101629.94
2022-12-25T09:51:23.361Z,101628.97
2022-12-25T09:53:58.222Z,101620.38
2022-12-25T09:56:25.848Z,101621.66
2022-12-25T09:58:53.439Z,101623.47
2022-12-25T10:01:49.177Z,101634.34
2022-12-25T10:04:40.824Z,101630.56
2022-12-25T10:07:47.734Z,101609.56
2022-12-25T10:10:31.835Z,101601.66
2022-12-25T10:13:22.395Z,101592.63
2022-12-25T10:15:59.194Z,101600.66
2022-12-25T10:18:44.579Z,101606.44
2022-12-25T10:21:15.871Z,101607.28
2022-12-25T10:23:47.835Z,101597.84
2022-12-25T10:26:20.148Z,101592.09
2022-12-25T10:28:53.671Z,101586.84
2022-12-25T10:31:25.917Z,101577.13
2022-12-25T10:33:53.852Z,101581.63
2022-12-25T10:36:25.433Z,101591.22
2022-12-25T10:38:52.754Z,101577.44
2022-12-25T10:42:00.061Z,101589.94
2022-12-25T10:44:26.429Z,101590.38
2022-12-25T10:46:58.367Z,101608.69
2022-12-25T10:49:30.402Z,101593.88
2022-12-25T10:51:56.796Z,101569.06
2022-12-25T10:54:23.122Z,101571.75
2022-12-25T10:56:58.466Z,101575.28
2022-12-25T10:59:27.676Z,101558.66
2022-12-25T11:01:55.981Z,101576.41
2022-12-25T11:04:28.503Z,101570.59
2022-12-25T11:07:05.132Z,101568.06
2022-12-25T11:09:32.156Z,101561.84
2022-12-25T11:11:59.702Z,101558.59
2022-12-25T11:14:28.067Z,101555.63
2022-12-25T11:16:54.858Z,101547.84
2022-12-25T11:19:21.145Z,101528.19
2022-12-25T11:21:52.609Z,101525.78
2022-12-25T11:24:21.015Z,101515.38
2022-12-25T11:26:53.228Z,101498.50
2022-12-25T11:29:24.646Z,101496.53
2022-12-25T11:31:52.583Z,101478.94
2022-12-25T11:34:29.598Z,101490.28
2022-12-25T11:36:58.010Z,101471.22
2022-12-25T11:39:28.812Z,101471.31
2022-12-25T11:42:05.364Z,101470.63
2022-12-25T11:44:51.890Z,101491.59
2022-12-25T11:47:33.566Z,101480.28
2022-12-25T11:50:14.005Z,101461.34
2022-12-25T11:52:44.715Z,101452.56
2022-12-25T11:55:23.445Z,101444.13
2022-12-25T11:58:01.124Z,101435.09
2022-12-25T12:00:31.335Z,101435.38
2022-12-25T12:03:15.185Z,101420.88
2022-12-25T12:05:49.246Z,101409.03
2022-12-25T12:08:15.752Z,101433.69
2022-12-25T12:10:56.918Z,101424.41
2022-12-25T12:14:02.252Z,101407.81
2022-12-25T12:16:29.444Z,101427.56
2022-12-25T12:18:55.958Z,101407.72
2022-12-25T12:21:28.760Z,101383.50
2022-12-25T12:24:04.538Z,101402.66
2022-12-25T12:26:37.912Z,101415.97
2022-12-25T12:29:06.721Z,101405.25
2022-12-25T12:31:40.020Z,101395.53
2022-12-25T12:34:17.338Z,101402.84
2022-12-25T12:36:43.814Z,101407.44
2022-12-25T12:39:24.081Z,101407.84
2022-12-25T12:41:50.649Z,101400.50
2022-12-25T12:44:17.803Z,101389.38
2022-12-25T12:46:56.166Z,101395.03
2022-12-25T12:49:27.814Z,101396.03
2022-12-25T12:52:10.435Z,101397.03
2022-12-25T12:54:57.106Z,101381.97
2022-12-25T12:57:27.110Z,101379.41
2022-12-25T12:59:53.692Z,101364.19
2022-12-25T13:02:48.000Z,101366.16
2022-12-25T13:05:29.065Z,101366.00
2022-12-25T13:08:37.579Z,101372.22
2022-12-25T13:11:19.825Z,101372.22
2022-12-25T13:13:48.317Z,101373.91
2022-12-25T13:16:34.757Z,101365.16
2022-12-25T13:19:06.335Z,101366.88
2022-12-25T13:21:33.298Z,101358.44
2022-12-25T13:24:08.867Z,101367.16
2022-12-25T13:26:35.505Z,101345.22
2022-12-25T13:29:07.836Z,101335.81
2022-12-25T13:31:37.650Z,101348.84
2022-12-25T13:34:22.309Z,101355.91
2022-12-25T13:36:48.844Z,101348.59
2022-12-25T13:39:17.528Z,101356.75
2022-12-25T13:42:05.197Z,101350.81
2022-12-25T13:44:40.678Z,101353.59
2022-12-25T13:47:20.602Z,101340.19
2022-12-25T13:49:48.310Z,101331.16
2022-12-25T13:52:18.512Z,101328.09
2022-12-25T13:55:19.117Z,101319.03
2022-12-25T13:57:55.414Z,101304.78
2022-12-25T14:00:48.612Z,101332.44
2022-12-25T14:03:23.742Z,101319.97
2022-12-25T14:06:16.377Z,101330.34
2022-12-25T14:08:43.539Z,101324.84
2022-12-25T14:11:14.170Z,101311.94
2022-12-25T14:13:43.461Z,101302.88
2022-12-25T14:16:11.189Z,101314.81
2022-12-25T14:18:37.725Z,101319.72
2022-12-25T14:21:16.601Z,101315.19
2022-12-25T14:23:46.853Z,101313.50
2022-12-25T14:26:20.135Z,101320.84
2022-12-25T14:28:51.910Z,101315.81
2022-12-25T14:31:18.935Z,101322.16
2022-12-25T14:33:46.756Z,101322.53
2022-12-25T14:36:13.985Z,101321.28
2022-12-25T14:38:42.486Z,101321.00
2022-12-25T14:41:33.403Z,101314.09
2022-12-25T14:44:25.579Z,101307.91
2022-12-25T14:47:04.157Z,101303.00
2022-12-25T14:49:32.463Z,101298.63
2022-12-25T14:51:58.997Z,101304.00
2022-12-25T14:54:26.603Z,101314.00
2022-12-25T14:56:55.980Z,101309.81
2022-12-25T14:59:26.916Z,101306.28
2022-12-25T15:02:01.150Z,101287.75
2022-12-25T15:04:29.461Z,101274.97
2022-12-25T15:07:06.846Z,101289.69
2022-12-25T15:09:33.544Z,101284.47
2022-12-25T15:11:59.930Z,101282.06
2022-12-25T15:14:26.821Z,101297.47
2022-12-25T15:16:58.981Z,101284.75
2022-12-25T15:19:34.858Z,101287.28
2022-12-25T15:22:03.775Z,101272.94
2022-12-25T15:24:30.125Z,101259.88
2022-12-25T15:27:00.005Z,101276.72
2022-12-25T15:29:59.684Z,101276.44
2022-12-25T15:32:19.111Z,101283.78
2022-12-25T15:34:47.099Z,101283.50
2022-12-25T15:37:14.122Z,101279.78
2022-12-25T15:39:40.472Z,101275.34
2022-12-25T15:42:23.091Z,101299.38
2022-12-25T15:44:50.383Z,101295.03
2022-12-25T15:47:19.963Z,101284.03
2022-12-25T15:49:49.120Z,101283.50
2022-12-25T15:52:16.857Z,101282.88
2022-12-25T15:54:43.666Z,101292.38
2022-12-25T15:57:20.681Z,101286.44
2022-12-25T15:59:47.126Z,101276.19
2022-12-25T16:02:16.889Z,101286.44
2022-12-25T16:04:43.519Z,101279.78
2022-12-25T16:07:20.796Z,101282.06
2022-12-25T16:09:47.493Z,101277.13
2022-12-25T16:12:13.884Z,101288.84
2022-12-25T16:14:40.527Z,101272.59
2022-12-25T16:17:07.471Z,101287.53
2022-12-25T16:19:33.914Z,101286.69
2022-12-25T16:22:00.285Z,101291.06
2022-12-25T16:24:26.649Z,101286.56
2022-12-25T16:26:53.016Z,101285.00
2022-12-25T16:29:19.357Z,101289.81
2022-12-25T16:31:45.821Z,101295.56
2022-12-25T16:34:12.271Z,101264.66
2022-12-25T16:36:38.993Z,101282.78
2022-12-25T16:39:06.686Z,101297.53
2022-12-25T16:41:34.155Z,101284.94
2022-12-25T16:44:09.031Z,101278.56
2022-12-25T16:46:36.796Z,101283.38
2022-12-25T16:49:03.821Z,101292.66
2022-12-25T16:51:30.192Z,101288.00
2022-12-25T16:53:56.648Z,101274.50
2022-12-25T16:56:28.268Z,101288.84
2022-12-25T16:58:57.438Z,101288.84
2022-12-25T17:01:24.566Z,101283.50
2022-12-25T17:03:51.970Z,101277.03
2022-12-25T17:06:20.571Z,101267.72
2022-12-25T17:08:47.720Z,101271.38
2022-12-25T17:11:15.164Z,101265.03
2022-12-25T17:13:45.591Z,101270.69
2022-12-25T17:16:17.516Z,101270.13
2022-12-25T17:18:43.947Z,101255.91
2022-12-25T17:21:10.506Z,101254.22
2022-12-25T17:23:38.489Z,101254.91
2022-12-25T17:26:06.080Z,101262.56
2022-12-25T17:28:34.389Z,101265.47
2022-12-25T17:31:06.086Z,101270.59
2022-12-25T17:33:36.161Z,101260.88
2022-12-25T17:36:04.361Z,101263.53
2022-12-25T17:38:32.075Z,101259.19
2022-12-25T17:40:59.818Z,101250.16
2022-12-25T17:43:26.176Z,101248.19
2022-12-25T17:45:52.886Z,101248.47
2022-12-25T17:48:19.635Z,101238.72
2022-12-25T17:50:46.353Z,101238.34
2022-12-25T17:53:13.058Z,101232.00
2022-12-25T17:55:41.189Z,101226.97
2022-12-25T17:58:09.028Z,101239.19
2022-12-25T18:00:36.471Z,101251.16
2022-12-25T18:03:09.103Z,101246.69
2022-12-25T18:05:37.794Z,101244.66
2022-12-25T18:08:05.274Z,101248.38
2022-12-25T18:10:39.454Z,101245.13
2022-12-25T18:13:06.119Z,101236.41
2022-12-25T18:15:35.889Z,101231.50
2022-12-25T18:18:02.258Z,101186.91
2022-12-25T18:20:31.801Z,101202.66
2022-12-25T18:23:01.093Z,101220.38
2022-12-25T18:25:27.931Z,101232.91
2022-12-25T18:27:55.100Z,101238.69
2022-12-25T18:30:21.480Z,101238.53
2022-12-25T18:32:47.893Z,101247.50
2022-12-25T18:35:14.334Z,101237.78
2022-12-25T18:37:40.713Z,101246.75
2022-12-25T18:40:07.778Z,101247.66
2022-12-25T18:42:40.086Z,101259.06
2022-12-25T18:45:08.967Z,101252.56
2022-12-25T18:47:35.800Z,101244.44
2022-12-25T18:50:02.230Z,101248.25
2022-12-25T18:52:49.405Z,101249.25
2022-12-25T18:55:15.021Z,101241.06
2022-12-25T18:57:41.420Z,101235.84
2022-12-25T19:00:08.462Z,101214.34
2022-12-25T19:02:35.048Z,101224.94
2022-12-25T19:05:01.703Z,101231.44
2022-12-25T19:07:28.084Z,101226.63
2022-12-25T19:09:54.449Z,101225.34
2022-12-25T19:12:20.849Z,101222.13
2022-12-25T19:14:48.498Z,101228.34
2022-12-25T19:17:17.595Z,101217.63
2022-12-25T19:19:44.222Z,101220.31
2022-12-25T19:22:10.639Z,101217.09
2022-12-25T19:24:37.244Z,101210.34
2022-12-25T19:27:03.912Z,101205.44
2022-12-25T19:29:31.716Z,101220.50
2022-12-25T19:31:58.253Z,101221.19
2022-12-25T19:34:24.764Z,101220.50
2022-12-25T19:36:51.685Z,101221.59
2022-12-25T19:39:18.852Z,101226.13
2022-12-25T19:41:45.345Z,101222.47
2022-12-25T19:44:11.796Z,101218.72
2022-12-25T19:46:40.751Z,101229.13
2022-12-25T19:49:11.300Z,101228.16
2022-12-25T19:51:40.870Z,101234.03
2022-12-25T19:54:07.591Z,101226.44
2022-12-25T19:56:34.307Z,101234.03
2022-12-25T19:59:00.955Z,101227.97
2022-12-25T20:01:29.787Z,101237.69
2022-12-25T20:03:56.759Z,101240.38
2022-12-25T20:06:27.614Z,101235.72
2022-12-25T20:08:57.084Z,101230.38
2022-12-25T20:11:26.281Z,101211.25
2022-12-25T20:13:53.680Z,101231.50
2022-12-25T20:16:20.132Z,101241.19
2022-12-25T20:18:46.594Z,101233.69
2022-12-25T20:21:15.938Z,101228.78
2022-12-25T20:23:42.882Z,101228.94
2022-12-25T20:26:10.631Z,101231.75
2022-12-25T20:28:38.757Z,101223.56
2022-12-25T20:31:10.417Z,101229.22
2022-12-25T20:33:37.534Z,101230.50
2022-12-25T20:36:04.345Z,101234.28
2022-12-25T20:38:30.909Z,101225.53
2022-12-25T20:43:53.635Z,101237.25
2022-12-25T20:46:20.194Z,101236.25
2022-12-25T20:48:46.572Z,101237.94
2022-12-25T20:51:18.873Z,101220.78
2022-12-25T20:53:46.228Z,101234.88
2022-12-25T20:56:14.090Z,101243.59
2022-12-25T20:58:40.579Z,101246.09
2022-12-25T21:01:12.539Z,101244.28
2022-12-25T21:03:39.909Z,101251.63
2022-12-25T21:06:07.017Z,101234.94
2022-12-25T21:08:33.556Z,101243.59
2022-12-25T21:11:00.998Z,101231.50
2022-12-25T21:13:35.907Z,101239.50
2022-12-25T21:16:05.631Z,101244.13
2022-12-25T21:18:32.077Z,101223.38
2022-12-25T21:20:59.250Z,101229.28
2022-12-25T21:23:26.704Z,101247.53
2022-12-25T21:25:54.586Z,101247.53
2022-12-25T21:28:21.985Z,101246.69
2022-12-25T21:30:48.483Z,101234.88
2022-12-25T21:33:34.141Z,101235.72
2022-12-25T21:36:08.868Z,101237.41
2022-12-25T21:38:36.039Z,101243.59
2022-12-25T21:41:07.694Z,101242.06
2022-12-25T21:43:36.012Z,101240.22
2022-12-25T21:46:11.797Z,101241.47
2022-12-25T21:48:39.022Z,101250.09
2022-12-25T21:51:31.899Z,101255.97
2022-12-25T21:53:58.990Z,101263.00
2022-12-25T21:56:27.841Z,101251.47
2022-12-25T21:58:54.192Z,101248.25
2022-12-25T22:01:20.637Z,101234.16
2022-12-25T22:03:47.071Z,101242.44
2022-12-25T22:06:32.030Z,101244.28
2022-12-25T22:08:58.430Z,101249.34
2022-12-25T22:11:44.354Z,101248.66
2022-12-25T22:14:52.741Z,101251.88
2022-12-25T22:17:42.032Z,101252.69
2022-12-25T22:20:17.562Z,101253.72
2022-12-25T22:22:44.448Z,101250.03
2022-12-25T22:25:11.819Z,101255.09
2022-12-25T22:27:39.645Z,101261.03
2022-12-25T22:30:09.855Z,101266.66
2022-12-25T22:32:36.403Z,101263.59
2022-12-25T22:35:03.402Z,101265.16
2022-12-25T22:37:29.859Z,101268.69
2022-12-25T22:39:56.221Z,101260.66
2022-12-25T22:42:22.660Z,101269.34
2022-12-25T22:44:49.149Z,101269.66
2022-12-25T22:47:15.576Z,101270.06
2022-12-25T22:49:42.080Z,101257.97
2022-12-25T22:52:09.806Z,101252.63
2022-12-25T22:54:36.848Z,101258.25
2022-12-25T22:57:03.856Z,101265.59
2022-12-25T22:59:30.298Z,101264.91
2022-12-25T23:01:56.805Z,101267.25
2022-12-25T23:04:23.831Z,101256.72
2022-12-25T23:06:50.793Z,101266.59
2022-12-25T23:09:24.778Z,101263.22
2022-12-25T23:11:51.454Z,101260.84
2022-12-25T23:14:36.615Z,101264.19
2022-12-25T23:17:03.085Z,101254.47
2022-12-25T23:20:04.888Z,101262.22
2022-12-25T23:22:49.672Z,101260.66
2022-12-25T23:25:34.414Z,101257.72
2022-12-25T23:28:00.797Z,101250.66
2022-12-25T23:30:27.146Z,101254.91
2022-12-25T23:32:53.498Z,101255.88
2022-12-25T23:35:19.964Z,101250.41
2022-12-25T23:37:46.967Z,101257.41
2022-12-25T23:40:13.317Z,101258.56
2022-12-25T23:42:39.674Z,101257.56
2022-12-25T23:45:06.578Z,101257.72
2022-12-25T23:47:32.933Z,101260.41
2022-12-25T23:49:59.290Z,101256.03
2022-12-25T23:52:25.642Z,101255.03
2022-12-25T23:54:52.789Z,101252.50
2022-12-25T23:57:19.156Z,101242.50
2022-12-25T23:59:45.520Z,101250.94
